createdAt,value
2023-03-21T00:00:35.433Z,11.13
2023-03-21T00:03:33.008Z,10.91
2023-03-21T00:06:28.565Z,10.94
2023-03-21T00:09:24.132Z,10.88
2023-03-21T00:12:20.698Z,10.8
2023-03-21T00:15:20.574Z,10.86
2023-03-21T00:18:17.775Z,11.07
2023-03-21T00:21:40.919Z,11.06
2023-03-21T00:24:22.889Z,11.15
2023-03-21T00:27:44.882Z,11.14
2023-03-21T00:30:20.938Z,11.25
2023-03-21T00:33:22.796Z,11.17
2023-03-21T00:36:19.124Z,11.18
2023-03-21T00:39:14.671Z,11.22
2023-03-21T00:42:10.198Z,11.18
2023-03-21T00:45:10.724Z,11.04
2023-03-21T00:48:06.417Z,10.97
2023-03-21T00:51:01.873Z,10.94
2023-03-21T00:53:58.450Z,11
2023-03-21T00:56:55.001Z,10.99
2023-03-21T00:59:50.544Z,11.01
2023-03-21T01:03:02.661Z,11.06
2023-03-21T01:06:39.664Z,11.11
2023-03-21T01:09:35.109Z,11.09
2023-03-21T01:12:30.651Z,10.96
2023-03-21T01:15:26.221Z,10.89
2023-03-21T01:18:24.788Z,10.87
2023-03-21T01:21:20.347Z,10.91
2023-03-21T01:24:15.878Z,10.84
2023-03-21T01:27:11.470Z,10.72
2023-03-21T01:30:17.386Z,10.64
2023-03-21T01:36:16.425Z,10.74
2023-03-21T01:39:12.687Z,10.66
2023-03-21T01:42:13.246Z,10.63
2023-03-21T01:45:23.719Z,10.6
2023-03-21T01:48:20.241Z,10.53
2023-03-21T01:51:15.871Z,10.61
2023-03-21T01:54:14.412Z,10.79
2023-03-21T01:57:12.906Z,10.88
2023-03-21T02:00:12.534Z,10.65
2023-03-21T02:03:16.870Z,10.77
2023-03-21T02:06:15.609Z,10.68
2023-03-21T02:09:13.116Z,10.65
2023-03-21T02:12:09.724Z,10.67
2023-03-21T02:15:07.263Z,10.67
2023-03-21T02:18:10.804Z,10.62
2023-03-21T02:21:21.311Z,10.55
2023-03-21T02:24:36.826Z,10.4
2023-03-21T02:27:40.348Z,10.38
2023-03-21T02:30:59.936Z,10.42
2023-03-21T02:34:15.379Z,10.39
2023-03-21T02:37:23.571Z,10.31
2023-03-21T02:40:29.492Z,10.28
2023-03-21T02:43:35.010Z,10.35
2023-03-21T02:46:45.446Z,10.28
2023-03-21T02:49:46.048Z,10.34
2023-03-21T02:52:47.600Z,10.44
2023-03-21T02:55:48.177Z,10.4
2023-03-21T02:58:46.723Z,10.4
2023-03-21T03:01:42.331Z,10.48
2023-03-21T03:04:42.870Z,10.43
2023-03-21T03:07:50.385Z,10.44
2023-03-21T03:11:03.861Z,10.41
2023-03-21T03:14:38.583Z,10.32
2023-03-21T03:17:28.409Z,10.38
2023-03-21T03:20:36.844Z,10.4
2023-03-21T03:26:51.485Z,10.4
2023-03-21T03:29:51.068Z,10.27
2023-03-21T03:32:51.581Z,10.4
2023-03-21T03:35:59.040Z,10.21
2023-03-21T03:38:54.714Z,10.1
2023-03-21T03:42:10.231Z,10.07
2023-03-21T03:45:00.785Z,10.11
2023-03-21T03:48:04.371Z,10.07
2023-03-21T03:51:03.855Z,10.16
2023-03-21T03:54:03.427Z,10.46
2023-03-21T03:57:00.968Z,10.36
2023-03-21T03:59:58.522Z,10.34
2023-03-21T04:02:54.164Z,10.39
2023-03-21T04:05:53.678Z,10.28
2023-03-21T04:08:51.245Z,10.16
2023-03-21T04:11:46.753Z,10.11
2023-03-21T04:17:47.856Z,10.1
2023-03-21T04:20:44.823Z,10.09
2023-03-21T04:23:39.992Z,10
2023-03-21T04:26:36.550Z,9.92
2023-03-21T04:29:32.098Z,9.89
2023-03-21T04:32:27.696Z,10.1
2023-03-21T04:35:25.235Z,10.46
2023-03-21T04:38:20.783Z,9.8
2023-03-21T04:44:22.952Z,9.69
2023-03-21T04:47:20.582Z,9.7
2023-03-21T04:50:16.023Z,9.72
2023-03-21T04:53:11.537Z,9.74
2023-03-21T04:56:09.130Z,9.73
2023-03-21T04:59:07.624Z,9.53
2023-03-21T05:02:03.214Z,9.44
2023-03-21T05:04:58.772Z,9.51
2023-03-21T05:07:58.312Z,9.6
2023-03-21T05:10:53.941Z,9.88
2023-03-21T05:13:49.470Z,10.16
2023-03-21T05:16:53.375Z,10.03
2023-03-21T05:19:52.561Z,10.53
2023-03-21T05:22:51.168Z,10.73
2023-03-21T05:25:49.673Z,10.75
2023-03-21T05:28:48.240Z,10.17
2023-03-21T05:31:47.797Z,10.24
2023-03-21T05:34:43.306Z,10.05
2023-03-21T05:37:38.904Z,10.17
2023-03-21T05:40:35.423Z,10.52
2023-03-21T05:43:30.980Z,10.57
2023-03-21T05:46:26.617Z,10.81
2023-03-21T05:49:23.164Z,10.72
2023-03-21T05:52:18.713Z,10.45
2023-03-21T05:55:14.231Z,10.59
2023-03-21T05:58:12.823Z,10.62
2023-03-21T06:01:08.408Z,10.75
2023-03-21T06:04:04.028Z,10.71
2023-03-21T06:06:59.492Z,10.99
2023-03-21T06:09:56.066Z,10.69
2023-03-21T06:12:51.610Z,10.89
2023-03-21T06:15:47.266Z,10.91
2023-03-21T06:18:42.736Z,11.26
2023-03-21T06:21:38.254Z,11.31
2023-03-21T06:24:33.925Z,11.23
2023-03-21T06:27:29.445Z,11.19
2023-03-21T06:30:25.991Z,11.4
2023-03-21T06:33:21.530Z,11.41
2023-03-21T06:36:22.072Z,11.24
2023-03-21T06:39:18.677Z,11.64
2023-03-21T06:42:14.185Z,11.76
2023-03-21T06:45:09.804Z,12.31
2023-03-21T06:48:09.106Z,12.49
2023-03-21T06:51:05.891Z,12.73
2023-03-21T06:54:01.437Z,12.75
2023-03-21T06:56:57.013Z,12.28
2023-03-21T06:59:53.533Z,12.92
2023-03-21T07:02:51.313Z,13
2023-03-21T07:05:47.673Z,13
2023-03-21T07:08:48.229Z,13.35
2023-03-21T07:11:43.791Z,12.73
2023-03-21T07:14:39.362Z,12.68
2023-03-21T07:17:35.889Z,12.88
2023-03-21T07:20:31.449Z,13
2023-03-21T07:23:28.081Z,12.93
2023-03-21T07:26:24.568Z,13.35
2023-03-21T07:29:22.187Z,14.1
2023-03-21T07:32:17.711Z,14.49
2023-03-21T07:35:14.229Z,15.17
2023-03-21T07:38:09.821Z,14.52
2023-03-21T07:41:05.420Z,14.18
2023-03-21T07:44:01.953Z,14.27
2023-03-21T07:46:57.488Z,14.22
2023-03-21T07:52:58.607Z,14.94
2023-03-21T07:55:56.165Z,15.51
2023-03-21T07:58:51.750Z,15.63
2023-03-21T08:01:47.286Z,15.6
2023-03-21T08:04:43.833Z,15.27
2023-03-21T08:07:39.396Z,15.48
2023-03-21T08:10:35.953Z,15.91
2023-03-21T08:13:31.522Z,15.24
2023-03-21T08:16:27.155Z,15.39
2023-03-21T08:19:22.663Z,15.61
2023-03-21T08:22:18.232Z,16.13
2023-03-21T08:28:21.347Z,16.84
2023-03-21T08:31:17.909Z,16.77
2023-03-21T08:34:13.440Z,16.91
2023-03-21T08:37:09.957Z,17
2023-03-21T08:40:09.522Z,17.31
2023-03-21T08:43:06.069Z,16.96
2023-03-21T08:46:03.710Z,16.94
2023-03-21T08:48:59.153Z,17.2
2023-03-21T08:51:55.777Z,17.19
2023-03-21T08:54:52.313Z,17.1
2023-03-21T08:57:48.904Z,17.11
2023-03-21T09:00:46.436Z,16.54
2023-03-21T09:03:41.994Z,16.2
2023-03-21T09:06:38.587Z,16.26
2023-03-21T09:09:36.114Z,16.62
2023-03-21T09:12:31.635Z,17.71
2023-03-21T09:15:28.228Z,17.7
2023-03-21T09:18:44.754Z,18.01
2023-03-21T09:21:45.300Z,18.55
2023-03-21T09:24:41.855Z,18.64
2023-03-21T09:27:37.411Z,18.68
2023-03-21T09:30:33.970Z,19.17
2023-03-21T09:33:32.546Z,18.92
2023-03-21T09:36:30.067Z,19.23
2023-03-21T09:39:26.661Z,19.85
2023-03-21T09:42:34.192Z,19.01
2023-03-21T09:45:38.224Z,19.12
2023-03-21T09:48:53.980Z,18.67
2023-03-21T09:51:47.063Z,18.94
2023-03-21T09:54:46.363Z,19.02
2023-03-21T09:57:55.906Z,19.02
2023-03-21T10:01:01.429Z,18.94
2023-03-21T10:04:01.115Z,18.87
2023-03-21T10:07:02.519Z,18.88
2023-03-21T10:10:02.112Z,18.83
2023-03-21T10:13:01.585Z,18.36
2023-03-21T10:16:00.257Z,18.39
2023-03-21T10:18:59.668Z,18.58
2023-03-21T10:22:01.207Z,18.84
2023-03-21T10:24:58.840Z,19.34
2023-03-21T10:27:55.362Z,19.93
2023-03-21T10:30:57.900Z,19.78
2023-03-21T10:33:57.503Z,20.37
2023-03-21T10:36:57.044Z,20.95
2023-03-21T10:39:58.822Z,20.6
2023-03-21T10:42:56.108Z,20.71
2023-03-21T10:45:55.779Z,20.55
2023-03-21T10:48:52.378Z,20.05
2023-03-21T10:51:51.769Z,20.99
2023-03-21T10:54:55.299Z,20.84
2023-03-21T10:57:53.889Z,20.42
2023-03-21T11:00:55.513Z,20.84
2023-03-21T11:07:06.537Z,21.05
2023-03-21T11:10:17.199Z,21.3
2023-03-21T11:13:23.513Z,22.08
2023-03-21T11:16:24.161Z,21.56
2023-03-21T11:19:27.682Z,21.14
2023-03-21T11:22:25.202Z,21.85
2023-03-21T11:25:25.761Z,22.47
2023-03-21T11:28:24.303Z,21.62
2023-03-21T11:31:25.140Z,20.89
2023-03-21T11:34:26.449Z,22.1
2023-03-21T11:37:26.972Z,22.6
2023-03-21T11:40:28.477Z,22.51
2023-03-21T11:43:27.050Z,22.62
2023-03-21T11:46:29.617Z,22.47
2023-03-21T11:49:27.179Z,23.34
2023-03-21T11:52:33.675Z,23.26
2023-03-21T11:55:46.208Z,23.21
2023-03-21T11:58:55.902Z,22.65
2023-03-21T12:02:00.292Z,23.29
2023-03-21T12:05:12.818Z,23.04
2023-03-21T12:08:23.319Z,23.76
2023-03-21T12:11:27.870Z,24.08
2023-03-21T12:14:35.394Z,24.17
2023-03-21T12:17:42.952Z,23.37
2023-03-21T12:20:47.484Z,22.81
2023-03-21T12:23:56.994Z,22.64
2023-03-21T12:26:59.243Z,22.96
2023-03-21T12:30:11.065Z,20.96
2023-03-21T12:33:22.574Z,20.41
2023-03-21T12:36:36.082Z,19.99
2023-03-21T12:39:38.590Z,19.14
2023-03-21T12:42:52.152Z,19.41
2023-03-21T12:45:52.973Z,19.38
2023-03-21T12:48:56.186Z,18.96
2023-03-21T12:51:57.806Z,19.22
2023-03-21T12:55:00.314Z,19.66
2023-03-21T12:58:01.887Z,19.56
2023-03-21T13:01:04.470Z,20.25
2023-03-21T13:04:13.972Z,20
2023-03-21T13:07:13.484Z,19.72
2023-03-21T13:10:14.059Z,20.6
2023-03-21T13:13:19.590Z,21.54
2023-03-21T13:16:23.296Z,22.92
2023-03-21T13:19:28.613Z,24.14
2023-03-21T13:22:30.209Z,25.67
2023-03-21T13:25:32.734Z,25.88
2023-03-21T13:28:35.336Z,26.17
2023-03-21T13:31:51.742Z,26.24
2023-03-21T13:34:51.350Z,24.48
2023-03-21T13:37:51.963Z,22.6
2023-03-21T13:40:57.454Z,21.99
2023-03-21T13:44:07.924Z,21.61
2023-03-21T13:47:13.498Z,21.44
2023-03-21T13:50:20.044Z,23.97
2023-03-21T13:53:22.568Z,24.46
2023-03-21T13:56:21.141Z,22.58
2023-03-21T13:59:33.662Z,21.62
2023-03-21T14:02:33.186Z,21.03
2023-03-21T14:05:31.818Z,21.31
2023-03-21T14:08:37.149Z,21.26
2023-03-21T14:11:32.862Z,20.91
2023-03-21T14:14:33.362Z,20.99
2023-03-21T14:17:31.029Z,21.42
2023-03-21T14:20:29.511Z,22.08
2023-03-21T14:23:25.071Z,22.48
2023-03-21T14:26:22.173Z,21.95
2023-03-21T14:29:26.503Z,22.02
2023-03-21T14:32:24.722Z,22.49
2023-03-21T14:35:22.327Z,23.13
2023-03-21T14:38:19.848Z,22.56
2023-03-21T14:41:21.406Z,22.79
2023-03-21T14:44:24.915Z,23.2
2023-03-21T14:47:21.445Z,22.73
2023-03-21T14:50:19.042Z,22.82
2023-03-21T14:53:18.604Z,23.23
2023-03-21T14:56:18.150Z,23.04
2023-03-21T14:59:17.688Z,21.05
2023-03-21T15:02:17.315Z,20.55
2023-03-21T15:05:15.854Z,21.86
2023-03-21T15:08:14.398Z,21.05
2023-03-21T15:11:12.900Z,21.78
2023-03-21T15:14:12.474Z,21.75
2023-03-21T15:17:10.011Z,22.43
2023-03-21T15:20:09.573Z,23.02
2023-03-21T15:23:09.135Z,22.87
2023-03-21T15:26:06.745Z,23.26
2023-03-21T15:29:06.258Z,22.67
2023-03-21T15:32:04.800Z,22.81
2023-03-21T15:35:05.321Z,23.19
2023-03-21T15:38:06.801Z,23.69
2023-03-21T15:41:13.379Z,24.23
2023-03-21T15:44:13.951Z,25.72
2023-03-21T15:47:13.577Z,24.98
2023-03-21T15:50:21.069Z,26.64
2023-03-21T15:53:17.634Z,26.81
2023-03-21T15:56:26.312Z,25.95
2023-03-21T15:59:24.698Z,24.22
2023-03-21T16:02:23.364Z,25.27
2023-03-21T16:05:30.799Z,26.41
2023-03-21T16:08:33.340Z,26.77
2023-03-21T16:11:37.868Z,25.05
2023-03-21T16:14:33.423Z,27.06
2023-03-21T16:17:38.948Z,25.75
2023-03-21T16:20:39.848Z,26.06
2023-03-21T16:23:36.664Z,25.53
2023-03-21T16:26:37.639Z,25.36
2023-03-21T16:29:37.845Z,25.68
2023-03-21T16:32:37.708Z,25.32
2023-03-21T16:35:34.271Z,24.74
2023-03-21T16:38:31.868Z,24.52
2023-03-21T16:41:28.395Z,22.88
2023-03-21T16:44:24.934Z,21
2023-03-21T16:47:23.512Z,20.04
2023-03-21T16:50:23.066Z,18.97
2023-03-21T16:53:18.728Z,18.31
2023-03-21T16:56:17.165Z,18.03
2023-03-21T16:59:13.764Z,17.77
2023-03-21T17:02:13.275Z,17.78
2023-03-21T17:05:11.819Z,17.71
2023-03-21T17:08:15.363Z,17.62
2023-03-21T17:11:16.084Z,16.92
2023-03-21T17:14:13.480Z,16.12
2023-03-21T17:17:17.031Z,15.81
2023-03-21T17:20:16.573Z,15.37
2023-03-21T17:23:12.156Z,15.12
2023-03-21T17:26:14.890Z,14.85
2023-03-21T17:29:21.181Z,14.48
2023-03-21T17:32:22.746Z,15
2023-03-21T17:35:21.345Z,15.19
2023-03-21T17:38:21.839Z,15.32
2023-03-21T17:41:19.417Z,15.48
2023-03-21T17:44:15.938Z,15.23
2023-03-21T17:47:11.486Z,15.3
2023-03-21T17:50:13.037Z,15.37
2023-03-21T17:53:14.624Z,15.55
2023-03-21T17:56:14.216Z,15.29
2023-03-21T17:59:11.716Z,14.98
2023-03-21T18:02:08.327Z,14.83
2023-03-21T18:05:04.882Z,15.22
2023-03-21T18:08:10.123Z,14.5
2023-03-21T18:11:03.936Z,13.93
2023-03-21T18:14:15.040Z,13.7
2023-03-21T18:17:01.050Z,13.5
2023-03-21T18:19:56.722Z,13.39
2023-03-21T18:22:52.126Z,13.16
2023-03-21T18:25:53.700Z,13.35
2023-03-21T18:29:47.337Z,13.92
2023-03-21T18:32:06.670Z,13.97
2023-03-21T18:35:11.337Z,13.27
2023-03-21T18:38:11.879Z,12.84
2023-03-21T18:41:12.511Z,12.65
2023-03-21T18:44:21.239Z,12.46
2023-03-21T18:47:12.551Z,12.47
2023-03-21T18:50:15.479Z,12.58
2023-03-21T18:53:09.654Z,12.62
2023-03-21T18:56:10.225Z,12.61
2023-03-21T18:59:06.768Z,12.44
2023-03-21T19:02:03.437Z,12.32
2023-03-21T19:04:58.905Z,12.33
2023-03-21T19:07:56.408Z,12.23
2023-03-21T19:10:53.184Z,12.07
2023-03-21T19:13:48.503Z,12.16
2023-03-21T19:17:23.110Z,12.35
2023-03-21T19:19:50.868Z,12.62
2023-03-21T19:22:47.221Z,12.88
2023-03-21T19:25:44.719Z,12.35
2023-03-21T19:28:42.328Z,12.29
2023-03-21T19:31:38.898Z,11.95
2023-03-21T19:34:36.408Z,11.68
2023-03-21T19:37:35.967Z,11.73
2023-03-21T19:40:31.488Z,11.74
2023-03-21T19:43:33.105Z,11.62
2023-03-21T19:46:34.644Z,11.61
2023-03-21T19:49:52.078Z,11.36
2023-03-21T19:52:37.750Z,11.48
2023-03-21T19:55:33.789Z,11.64
2023-03-21T19:58:31.850Z,11.4
2023-03-21T20:01:28.462Z,11.4
2023-03-21T20:04:28.941Z,11.46
2023-03-21T20:07:30.494Z,11.41
2023-03-21T20:10:31.075Z,11.52
2023-03-21T20:13:26.599Z,12.19
2023-03-21T20:16:23.394Z,12.26
2023-03-21T20:19:19.715Z,12.07
2023-03-21T20:22:29.427Z,11.91
2023-03-21T20:25:21.794Z,11.58
2023-03-21T20:28:25.532Z,11.39
2023-03-21T20:31:25.978Z,12.19
2023-03-21T20:34:22.485Z,12.38
2023-03-21T20:37:24.011Z,12.84
2023-03-21T20:40:20.562Z,13.14
2023-03-21T20:44:04.916Z,12.95
2023-03-21T20:46:21.750Z,12.96
2023-03-21T20:49:23.237Z,12.55
2023-03-21T20:52:57.943Z,11.72
2023-03-21T20:55:25.292Z,11.54
2023-03-21T20:58:50.839Z,10.56
2023-03-21T21:01:31.463Z,10.59
2023-03-21T21:04:49.906Z,10.48
2023-03-21T21:07:35.513Z,10.74
2023-03-21T21:10:55.506Z,10.63
2023-03-21T21:13:44.572Z,10.9
2023-03-21T21:16:46.087Z,11.22
2023-03-21T21:23:00.168Z,10.87
2023-03-21T21:26:04.706Z,11.18
2023-03-21T21:29:06.249Z,10.65
2023-03-21T21:32:06.842Z,11.06
2023-03-21T21:35:09.525Z,11.47
2023-03-21T21:38:12.923Z,10.54
2023-03-21T21:41:17.463Z,10.9
2023-03-21T21:44:18.960Z,11.47
2023-03-21T21:50:29.062Z,12.12
2023-03-21T21:53:33.613Z,11.75
2023-03-21T21:56:35.082Z,11.82
2023-03-21T21:59:36.723Z,11.66
2023-03-21T22:02:37.265Z,10.84
2023-03-21T22:05:38.725Z,10.78
2023-03-21T22:08:47.319Z,10.36
2023-03-21T22:11:48.852Z,10.36
2023-03-21T22:14:49.407Z,10.15
2023-03-21T22:17:50.977Z,10.03
2023-03-21T22:20:52.531Z,9.64
2023-03-21T22:23:53.058Z,9.34
2023-03-21T22:26:57.706Z,8.95
2023-03-21T22:30:04.169Z,9.05
2023-03-21T22:33:09.736Z,9.02
2023-03-21T22:36:11.187Z,8.94
2023-03-21T22:39:13.721Z,8.71
2023-03-21T22:42:14.292Z,8.82
2023-03-21T22:45:15.848Z,8.84
2023-03-21T22:48:16.475Z,8.67
2023-03-21T22:51:16.947Z,8.58
2023-03-21T22:54:17.505Z,8.5
2023-03-21T22:57:20.075Z,8.27
2023-03-21T23:00:20.640Z,8.08
2023-03-21T23:03:21.100Z,8.13
2023-03-21T23:06:21.678Z,8.22
2023-03-21T23:09:18.261Z,8.59
2023-03-21T23:12:16.830Z,8.82
2023-03-21T23:15:12.329Z,8.34
2023-03-21T23:18:07.911Z,8.26
2023-03-21T23:21:06.480Z,8.65
2023-03-21T23:24:02.047Z,8.5
2023-03-21T23:26:57.563Z,8.35
2023-03-21T23:29:54.172Z,8.1
2023-03-21T23:32:49.735Z,8.33
2023-03-21T23:35:46.338Z,8.57
2023-03-21T23:38:42.797Z,8.25
2023-03-21T23:41:42.382Z,8.13
2023-03-21T23:44:37.936Z,8.04
2023-03-21T23:47:33.505Z,7.92
2023-03-21T23:50:29.042Z,8.25
2023-03-21T23:53:24.641Z,8.33
2023-03-21T23:56:25.181Z,8.33
2023-03-21T23:59:21.679Z,8.19
